sensor_id;sensor_type;location;lat;lon;timestamp;P1;durP1;ratioP1;P2;durP2;ratioP2
64235;SDS011;50564;47.402;9.740;2023-04-25T00:01:17;6.90;;;4.78;;
64235;SDS011;50564;47.402;9.740;2023-04-25T00:06:18;8.45;;;6.22;;
64235;SDS011;50564;47.402;9.740;2023-04-25T00:11:19;6.93;;;5.20;;
64235;SDS011;50564;47.402;9.740;2023-04-25T00:16:20;7.00;;;5.30;;
64235;SDS011;50564;47.402;9.740;2023-04-25T00:21:20;8.93;;;5.75;;
64235;SDS011;50564;47.402;9.740;2023-04-25T00:26:22;9.80;;;6.88;;
64235;SDS011;50564;47.402;9.740;2023-04-25T00:31:23;11.15;;;7.53;;
64235;SDS011;50564;47.402;9.740;2023-04-25T00:36:23;9.50;;;6.60;;
64235;SDS011;50564;47.402;9.740;2023-04-25T00:41:25;8.18;;;5.32;;
64235;SDS011;50564;47.402;9.740;2023-04-25T00:46:26;8.50;;;5.05;;
64235;SDS011;50564;47.402;9.740;2023-04-25T00:51:27;6.97;;;5.25;;
64235;SDS011;50564;47.402;9.740;2023-04-25T00:56:28;6.50;;;4.38;;
64235;SDS011;50564;47.402;9.740;2023-04-25T01:01:28;7.13;;;5.18;;
64235;SDS011;50564;47.402;9.740;2023-04-25T01:06:30;7.95;;;4.90;;
64235;SDS011;50564;47.402;9.740;2023-04-25T01:11:31;11.30;;;7.00;;
64235;SDS011;50564;47.402;9.740;2023-04-25T01:16:31;8.93;;;6.45;;
64235;SDS011;50564;47.402;9.740;2023-04-25T01:21:33;8.13;;;5.03;;
64235;SDS011;50564;47.402;9.740;2023-04-25T01:26:33;6.18;;;4.13;;
64235;SDS011;50564;47.402;9.740;2023-04-25T01:31:35;5.38;;;3.47;;
64235;SDS011;50564;47.402;9.740;2023-04-25T01:36:36;5.55;;;3.40;;
64235;SDS011;50564;47.402;9.740;2023-04-25T01:41:37;5.65;;;2.97;;
64235;SDS011;50564;47.402;9.740;2023-04-25T01:46:38;3.95;;;2.88;;
64235;SDS011;50564;47.402;9.740;2023-04-25T01:51:39;4.70;;;2.47;;
64235;SDS011;50564;47.402;9.740;2023-04-25T01:56:40;5.80;;;2.92;;
64235;SDS011;50564;47.402;9.740;2023-04-25T02:01:43;4.30;;;2.65;;
64235;SDS011;50564;47.402;9.740;2023-04-25T02:06:52;7.57;;;4.20;;
64235;SDS011;50564;47.402;9.740;2023-04-25T02:11:53;9.10;;;5.40;;
64235;SDS011;50564;47.402;9.740;2023-04-25T02:17:14;7.70;;;5.70;;
64235;SDS011;50564;47.402;9.740;2023-04-25T02:22:14;11.10;;;7.10;;
64235;SDS011;50564;47.402;9.740;2023-04-25T02:27:15;11.48;;;7.15;;
64235;SDS011;50564;47.402;9.740;2023-04-25T02:32:15;8.45;;;6.57;;
64235;SDS011;50564;47.402;9.740;2023-04-25T02:37:16;5.68;;;4.00;;
64235;SDS011;50564;47.402;9.740;2023-04-25T02:42:19;7.78;;;4.38;;
64235;SDS011;50564;47.402;9.740;2023-04-25T02:47:20;7.90;;;3.72;;
64235;SDS011;50564;47.402;9.740;2023-04-25T02:52:20;9.02;;;3.05;;
64235;SDS011;50564;47.402;9.740;2023-04-25T02:57:29;6.57;;;3.20;;
64235;SDS011;50564;47.402;9.740;2023-04-25T03:02:30;7.25;;;3.17;;
64235;SDS011;50564;47.402;9.740;2023-04-25T03:07:31;7.65;;;3.22;;
64235;SDS011;50564;47.402;9.740;2023-04-25T03:12:31;6.03;;;3.08;;
64235;SDS011;50564;47.402;9.740;2023-04-25T03:17:32;5.45;;;2.95;;
64235;SDS011;50564;47.402;9.740;2023-04-25T03:22:33;7.28;;;3.33;;
64235;SDS011;50564;47.402;9.740;2023-04-25T03:27:34;7.28;;;3.38;;
64235;SDS011;50564;47.402;9.740;2023-04-25T03:32:34;6.28;;;3.08;;
64235;SDS011;50564;47.402;9.740;2023-04-25T03:37:35;9.77;;;3.17;;
64235;SDS011;50564;47.402;9.740;2023-04-25T03:42:36;4.47;;;2.60;;
64235;SDS011;50564;47.402;9.740;2023-04-25T03:47:38;5.82;;;3.05;;
64235;SDS011;50564;47.402;9.740;2023-04-25T03:52:39;6.28;;;2.72;;
64235;SDS011;50564;47.402;9.740;2023-04-25T03:57:40;8.07;;;2.75;;
64235;SDS011;50564;47.402;9.740;2023-04-25T04:02:41;5.05;;;2.53;;
64235;SDS011;50564;47.402;9.740;2023-04-25T04:07:43;3.83;;;2.20;;
64235;SDS011;50564;47.402;9.740;2023-04-25T04:12:45;6.00;;;3.78;;
64235;SDS011;50564;47.402;9.740;2023-04-25T04:17:46;4.65;;;2.75;;
64235;SDS011;50564;47.402;9.740;2023-04-25T04:22:48;4.95;;;2.67;;
64235;SDS011;50564;47.402;9.740;2023-04-25T04:27:50;4.80;;;2.25;;
64235;SDS011;50564;47.402;9.740;2023-04-25T04:33:06;8.20;;;4.22;;
64235;SDS011;50564;47.402;9.740;2023-04-25T04:38:08;5.38;;;2.33;;
64235;SDS011;50564;47.402;9.740;2023-04-25T04:43:10;7.72;;;2.90;;
64235;SDS011;50564;47.402;9.740;2023-04-25T04:48:23;6.53;;;2.92;;
64235;SDS011;50564;47.402;9.740;2023-04-25T04:53:48;5.57;;;2.75;;
64235;SDS011;50564;47.402;9.740;2023-04-25T04:59:02;6.63;;;2.75;;
64235;SDS011;50564;47.402;9.740;2023-04-25T05:04:05;5.43;;;2.60;;
64235;SDS011;50564;47.402;9.740;2023-04-25T05:09:21;5.00;;;2.35;;
64235;SDS011;50564;47.402;9.740;2023-04-25T05:15:01;4.93;;;2.50;;
64235;SDS011;50564;47.402;9.740;2023-04-25T05:20:05;9.32;;;5.32;;
64235;SDS011;50564;47.402;9.740;2023-04-25T05:25:35;9.05;;;3.90;;
64235;SDS011;50564;47.402;9.740;2023-04-25T05:30:49;8.93;;;4.28;;
64235;SDS011;50564;47.402;9.740;2023-04-25T05:35:59;8.20;;;5.07;;
64235;SDS011;50564;47.402;9.740;2023-04-25T05:41:00;6.03;;;3.10;;
64235;SDS011;50564;47.402;9.740;2023-04-25T05:46:27;6.10;;;3.28;;
64235;SDS011;50564;47.402;9.740;2023-04-25T05:51:47;5.55;;;3.05;;
64235;SDS011;50564;47.402;9.740;2023-04-25T05:57:06;5.72;;;3.03;;
64235;SDS011;50564;47.402;9.740;2023-04-25T06:02:07;4.75;;;2.50;;
64235;SDS011;50564;47.402;9.740;2023-04-25T06:07:09;7.47;;;3.28;;
64235;SDS011;50564;47.402;9.740;2023-04-25T06:12:11;7.68;;;2.65;;
64235;SDS011;50564;47.402;9.740;2023-04-25T06:17:12;3.80;;;2.35;;
64235;SDS011;50564;47.402;9.740;2023-04-25T06:22:12;4.75;;;2.50;;
64235;SDS011;50564;47.402;9.740;2023-04-25T06:27:15;9.95;;;5.28;;
64235;SDS011;50564;47.402;9.740;2023-04-25T06:32:15;8.70;;;4.75;;
64235;SDS011;50564;47.402;9.740;2023-04-25T06:37:18;10.07;;;4.47;;
64235;SDS011;50564;47.402;9.740;2023-04-25T06:42:19;8.07;;;5.07;;
64235;SDS011;50564;47.402;9.740;2023-04-25T06:47:26;8.02;;;3.97;;
64235;SDS011;50564;47.402;9.740;2023-04-25T06:52:27;7.68;;;3.78;;
64235;SDS011;50564;47.402;9.740;2023-04-25T06:57:28;7.45;;;4.60;;
64235;SDS011;50564;47.402;9.740;2023-04-25T07:02:32;21.40;;;13.57;;
64235;SDS011;50564;47.402;9.740;2023-04-25T07:07:34;6.47;;;4.13;;
64235;SDS011;50564;47.402;9.740;2023-04-25T07:12:36;7.25;;;3.60;;
64235;SDS011;50564;47.402;9.740;2023-04-25T07:17:37;13.30;;;6.50;;
64235;SDS011;50564;47.402;9.740;2023-04-25T07:22:38;8.18;;;4.30;;
64235;SDS011;50564;47.402;9.740;2023-04-25T07:27:39;10.50;;;4.10;;
64235;SDS011;50564;47.402;9.740;2023-04-25T07:32:47;6.68;;;3.75;;
64235;SDS011;50564;47.402;9.740;2023-04-25T07:37:48;5.00;;;2.65;;
64235;SDS011;50564;47.402;9.740;2023-04-25T07:42:52;5.65;;;2.75;;
64235;SDS011;50564;47.402;9.740;2023-04-25T07:48:03;7.78;;;3.08;;
64235;SDS011;50564;47.402;9.740;2023-04-25T07:53:07;4.55;;;2.72;;
64235;SDS011;50564;47.402;9.740;2023-04-25T07:58:15;5.25;;;2.67;;
64235;SDS011;50564;47.402;9.740;2023-04-25T08:03:19;6.68;;;2.40;;
64235;SDS011;50564;47.402;9.740;2023-04-25T08:08:20;4.07;;;1.65;;
64235;SDS011;50564;47.402;9.740;2023-04-25T08:13:21;3.78;;;2.20;;
64235;SDS011;50564;47.402;9.740;2023-04-25T08:18:22;7.20;;;1.85;;
64235;SDS011;50564;47.402;9.740;2023-04-25T08:23:24;5.43;;;1.88;;
64235;SDS011;50564;47.402;9.740;2023-04-25T08:28:36;4.85;;;2.15;;
64235;SDS011;50564;47.402;9.740;2023-04-25T08:33:38;5.85;;;3.40;;
64235;SDS011;50564;47.402;9.740;2023-04-25T08:39:05;5.88;;;2.10;;
64235;SDS011;50564;47.402;9.740;2023-04-25T08:44:10;2.80;;;2.00;;
64235;SDS011;50564;47.402;9.740;2023-04-25T08:49:12;4.40;;;2.55;;
64235;SDS011;50564;47.402;9.740;2023-04-25T08:54:13;7.05;;;3.38;;
64235;SDS011;50564;47.402;9.740;2023-04-25T08:59:14;8.88;;;4.15;;
64235;SDS011;50564;47.402;9.740;2023-04-25T09:04:19;3.92;;;3.13;;
64235;SDS011;50564;47.402;9.740;2023-04-25T09:09:20;6.00;;;3.13;;
64235;SDS011;50564;47.402;9.740;2023-04-25T09:14:22;4.35;;;2.00;;
64235;SDS011;50564;47.402;9.740;2023-04-25T09:19:41;5.25;;;2.13;;
64235;SDS011;50564;47.402;9.740;2023-04-25T09:25:01;2.65;;;1.77;;
64235;SDS011;50564;47.402;9.740;2023-04-25T09:30:04;3.50;;;2.17;;
64235;SDS011;50564;47.402;9.740;2023-04-25T09:35:28;5.55;;;2.50;;
64235;SDS011;50564;47.402;9.740;2023-04-25T09:40:31;4.45;;;2.42;;
64235;SDS011;50564;47.402;9.740;2023-04-25T09:45:43;4.13;;;2.42;;
64235;SDS011;50564;47.402;9.740;2023-04-25T09:51:09;7.15;;;2.25;;
64235;SDS011;50564;47.402;9.740;2023-04-25T10:01:19;5.60;;;2.20;;
64235;SDS011;50564;47.402;9.740;2023-04-25T10:06:34;3.67;;;1.60;;
64235;SDS011;50564;47.402;9.740;2023-04-25T10:11:36;2.13;;;1.17;;
64235;SDS011;50564;47.402;9.740;2023-04-25T10:16:37;3.17;;;1.20;;
64235;SDS011;50564;47.402;9.740;2023-04-25T10:21:40;2.28;;;2.08;;
64235;SDS011;50564;47.402;9.740;2023-04-25T10:26:47;2.70;;;1.40;;
64235;SDS011;50564;47.402;9.740;2023-04-25T10:31:48;2.60;;;1.40;;
64235;SDS011;50564;47.402;9.740;2023-04-25T10:36:50;2.67;;;1.40;;
64235;SDS011;50564;47.402;9.740;2023-04-25T10:41:53;1.67;;;1.17;;
64235;SDS011;50564;47.402;9.740;2023-04-25T10:46:56;1.45;;;0.98;;
64235;SDS011;50564;47.402;9.740;2023-04-25T10:57:32;5.38;;;1.50;;
64235;SDS011;50564;47.402;9.740;2023-04-25T11:02:41;2.40;;;1.20;;
64235;SDS011;50564;47.402;9.740;2023-04-25T11:07:53;4.50;;;1.85;;
64235;SDS011;50564;47.402;9.740;2023-04-25T11:12:57;3.85;;;2.28;;
64235;SDS011;50564;47.402;9.740;2023-04-25T11:17:58;2.20;;;1.90;;
64235;SDS011;50564;47.402;9.740;2023-04-25T11:22:59;3.25;;;1.75;;
64235;SDS011;50564;47.402;9.740;2023-04-25T11:28:00;5.07;;;1.88;;
64235;SDS011;50564;47.402;9.740;2023-04-25T11:33:01;2.45;;;1.52;;
64235;SDS011;50564;47.402;9.740;2023-04-25T11:38:03;3.20;;;1.55;;
64235;SDS011;50564;47.402;9.740;2023-04-25T11:43:04;2.58;;;1.80;;
64235;SDS011;50564;47.402;9.740;2023-04-25T11:48:05;1.90;;;1.70;;
64235;SDS011;50564;47.402;9.740;2023-04-25T11:53:05;1.58;;;1.48;;
64235;SDS011;50564;47.402;9.740;2023-04-25T11:58:07;1.65;;;0.95;;
64235;SDS011;50564;47.402;9.740;2023-04-25T12:03:08;3.30;;;2.05;;
64235;SDS011;50564;47.402;9.740;2023-04-25T12:08:10;4.03;;;2.35;;
64235;SDS011;50564;47.402;9.740;2023-04-25T12:13:21;2.95;;;1.73;;
64235;SDS011;50564;47.402;9.740;2023-04-25T12:18:25;4.47;;;2.17;;
64235;SDS011;50564;47.402;9.740;2023-04-25T12:23:29;4.20;;;1.33;;
64235;SDS011;50564;47.402;9.740;2023-04-25T12:28:31;7.07;;;4.07;;
64235;SDS011;50564;47.402;9.740;2023-04-25T12:33:34;1.05;;;0.80;;
64235;SDS011;50564;47.402;9.740;2023-04-25T12:38:38;0.88;;;0.70;;
64235;SDS011;50564;47.402;9.740;2023-04-25T12:43:40;0.95;;;0.60;;
64235;SDS011;50564;47.402;9.740;2023-04-25T12:48:41;1.27;;;0.50;;
64235;SDS011;50564;47.402;9.740;2023-04-25T12:53:42;1.75;;;0.98;;
64235;SDS011;50564;47.402;9.740;2023-04-25T12:58:42;1.10;;;0.90;;
64235;SDS011;50564;47.402;9.740;2023-04-25T13:03:44;0.98;;;0.88;;
64235;SDS011;50564;47.402;9.740;2023-04-25T13:08:45;1.60;;;0.85;;
64235;SDS011;50564;47.402;9.740;2023-04-25T13:13:46;1.15;;;0.77;;
64235;SDS011;50564;47.402;9.740;2023-04-25T13:18:46;1.30;;;0.70;;
64235;SDS011;50564;47.402;9.740;2023-04-25T13:23:47;2.88;;;1.90;;
64235;SDS011;50564;47.402;9.740;2023-04-25T13:28:47;5.53;;;2.08;;
64235;SDS011;50564;47.402;9.740;2023-04-25T13:33:48;8.00;;;3.00;;
64235;SDS011;50564;47.402;9.740;2023-04-25T13:38:49;3.85;;;2.53;;
64235;SDS011;50564;47.402;9.740;2023-04-25T13:43:49;3.53;;;1.77;;
64235;SDS011;50564;47.402;9.740;2023-04-25T13:48:50;1.70;;;1.17;;
64235;SDS011;50564;47.402;9.740;2023-04-25T13:53:51;1.88;;;1.10;;
64235;SDS011;50564;47.402;9.740;2023-04-25T13:58:52;1.63;;;1.20;;
64235;SDS011;50564;47.402;9.740;2023-04-25T14:03:52;2.65;;;1.80;;
64235;SDS011;50564;47.402;9.740;2023-04-25T14:08:53;1.60;;;1.25;;
64235;SDS011;50564;47.402;9.740;2023-04-25T14:13:54;1.27;;;0.90;;
64235;SDS011;50564;47.402;9.740;2023-04-25T14:18:55;1.63;;;0.93;;
64235;SDS011;50564;47.402;9.740;2023-04-25T14:23:56;1.20;;;0.90;;
64235;SDS011;50564;47.402;9.740;2023-04-25T14:28:56;0.80;;;0.70;;
64235;SDS011;50564;47.402;9.740;2023-04-25T14:33:57;0.50;;;0.50;;
64235;SDS011;50564;47.402;9.740;2023-04-25T14:38:58;0.80;;;0.80;;
64235;SDS011;50564;47.402;9.740;2023-04-25T14:43:59;2.25;;;0.85;;
64235;SDS011;50564;47.402;9.740;2023-04-25T14:49:00;0.65;;;0.43;;
64235;SDS011;50564;47.402;9.740;2023-04-25T14:54:01;0.50;;;0.50;;
64235;SDS011;50564;47.402;9.740;2023-04-25T14:59:01;1.67;;;0.77;;
64235;SDS011;50564;47.402;9.740;2023-04-25T15:04:02;1.35;;;0.35;;
64235;SDS011;50564;47.402;9.740;2023-04-25T15:09:03;0.55;;;0.35;;
64235;SDS011;50564;47.402;9.740;2023-04-25T15:14:04;1.33;;;0.60;;
64235;SDS011;50564;47.402;9.740;2023-04-25T15:19:06;0.40;;;0.35;;
64235;SDS011;50564;47.402;9.740;2023-04-25T15:24:07;12.27;;;4.68;;
64235;SDS011;50564;47.402;9.740;2023-04-25T15:29:08;2.00;;;0.60;;
64235;SDS011;50564;47.402;9.740;2023-04-25T15:34:09;2.30;;;0.95;;
64235;SDS011;50564;47.402;9.740;2023-04-25T15:39:09;1.50;;;0.90;;
64235;SDS011;50564;47.402;9.740;2023-04-25T15:44:10;2.65;;;1.08;;
64235;SDS011;50564;47.402;9.740;2023-04-25T15:49:10;3.08;;;0.82;;
64235;SDS011;50564;47.402;9.740;2023-04-25T15:54:11;0.50;;;0.50;;
64235;SDS011;50564;47.402;9.740;2023-04-25T15:59:12;1.75;;;0.80;;
64235;SDS011;50564;47.402;9.740;2023-04-25T16:04:13;1.80;;;1.00;;
64235;SDS011;50564;47.402;9.740;2023-04-25T16:09:14;1.45;;;1.02;;
64235;SDS011;50564;47.402;9.740;2023-04-25T16:14:16;0.75;;;0.75;;
64235;SDS011;50564;47.402;9.740;2023-04-25T16:19:17;1.88;;;1.20;;
64235;SDS011;50564;47.402;9.740;2023-04-25T16:24:18;3.22;;;1.52;;
64235;SDS011;50564;47.402;9.740;2023-04-25T16:29:18;2.80;;;1.30;;
64235;SDS011;50564;47.402;9.740;2023-04-25T16:34:19;3.75;;;1.58;;
64235;SDS011;50564;47.402;9.740;2023-04-25T16:39:22;5.40;;;2.50;;
64235;SDS011;50564;47.402;9.740;2023-04-25T16:44:23;1.85;;;1.13;;
64235;SDS011;50564;47.402;9.740;2023-04-25T16:49:23;2.90;;;1.50;;
64235;SDS011;50564;47.402;9.740;2023-04-25T16:54:26;1.88;;;1.35;;
64235;SDS011;50564;47.402;9.740;2023-04-25T16:59:27;2.65;;;1.50;;
64235;SDS011;50564;47.402;9.740;2023-04-25T17:04:28;5.82;;;2.90;;
64235;SDS011;50564;47.402;9.740;2023-04-25T17:09:28;4.00;;;2.60;;
64235;SDS011;50564;47.402;9.740;2023-04-25T17:14:29;4.22;;;2.58;;
64235;SDS011;50564;47.402;9.740;2023-04-25T17:19:32;1.83;;;1.50;;
64235;SDS011;50564;47.402;9.740;2023-04-25T17:24:33;3.35;;;1.85;;
64235;SDS011;50564;47.402;9.740;2023-04-25T17:29:34;1.50;;;1.40;;
64235;SDS011;50564;47.402;9.740;2023-04-25T17:34:34;3.08;;;2.47;;
64235;SDS011;50564;47.402;9.740;2023-04-25T17:39:37;6.63;;;3.20;;
64235;SDS011;50564;47.402;9.740;2023-04-25T17:44:38;2.20;;;1.70;;
64235;SDS011;50564;47.402;9.740;2023-04-25T17:49:40;1.83;;;1.35;;
64235;SDS011;50564;47.402;9.740;2023-04-25T17:54:42;3.47;;;2.33;;
64235;SDS011;50564;47.402;9.740;2023-04-25T17:59:43;3.60;;;2.58;;
64235;SDS011;50564;47.402;9.740;2023-04-25T18:04:44;8.10;;;6.75;;
64235;SDS011;50564;47.402;9.740;2023-04-25T18:09:46;6.50;;;5.90;;
64235;SDS011;50564;47.402;9.740;2023-04-25T18:14:48;3.30;;;3.00;;
64235;SDS011;50564;47.402;9.740;2023-04-25T18:19:48;2.97;;;1.60;;
64235;SDS011;50564;47.402;9.740;2023-04-25T18:24:50;2.78;;;1.38;;
64235;SDS011;50564;47.402;9.740;2023-04-25T18:29:51;1.52;;;1.20;;
64235;SDS011;50564;47.402;9.740;2023-04-25T18:34:53;2.33;;;1.58;;
64235;SDS011;50564;47.402;9.740;2023-04-25T18:39:54;3.13;;;1.33;;
64235;SDS011;50564;47.402;9.740;2023-04-25T18:44:55;1.50;;;1.30;;
64235;SDS011;50564;47.402;9.740;2023-04-25T18:49:56;3.78;;;2.33;;
64235;SDS011;50564;47.402;9.740;2023-04-25T18:54:57;4.97;;;3.10;;
64235;SDS011;50564;47.402;9.740;2023-04-25T18:59:58;11.32;;;6.95;;
64235;SDS011;50564;47.402;9.740;2023-04-25T19:05:04;4.45;;;2.30;;
64235;SDS011;50564;47.402;9.740;2023-04-25T19:10:06;2.17;;;1.10;;
64235;SDS011;50564;47.402;9.740;2023-04-25T19:15:07;2.20;;;0.80;;
64235;SDS011;50564;47.402;9.740;2023-04-25T19:20:10;3.50;;;1.00;;
64235;SDS011;50564;47.402;9.740;2023-04-25T19:25:14;1.70;;;1.10;;
64235;SDS011;50564;47.402;9.740;2023-04-25T19:30:18;1.75;;;1.33;;
64235;SDS011;50564;47.402;9.740;2023-04-25T19:35:19;2.50;;;1.60;;
64235;SDS011;50564;47.402;9.740;2023-04-25T19:40:20;1.77;;;1.20;;
64235;SDS011;50564;47.402;9.740;2023-04-25T19:45:21;6.03;;;2.95;;
64235;SDS011;50564;47.402;9.740;2023-04-25T19:50:24;3.38;;;1.63;;
64235;SDS011;50564;47.402;9.740;2023-04-25T19:55:31;4.90;;;2.78;;
64235;SDS011;50564;47.402;9.740;2023-04-25T20:00:32;7.55;;;4.90;;
64235;SDS011;50564;47.402;9.740;2023-04-25T20:05:32;5.50;;;3.80;;
64235;SDS011;50564;47.402;9.740;2023-04-25T20:10:33;4.93;;;3.70;;
64235;SDS011;50564;47.402;9.740;2023-04-25T20:15:35;4.47;;;2.75;;
64235;SDS011;50564;47.402;9.740;2023-04-25T20:20:36;7.20;;;3.85;;
64235;SDS011;50564;47.402;9.740;2023-04-25T20:25:37;4.82;;;2.70;;
64235;SDS011;50564;47.402;9.740;2023-04-25T20:30:38;2.67;;;2.00;;
64235;SDS011;50564;47.402;9.740;2023-04-25T20:35:38;2.53;;;1.92;;
64235;SDS011;50564;47.402;9.740;2023-04-25T20:40:39;3.53;;;1.45;;
64235;SDS011;50564;47.402;9.740;2023-04-25T20:45:40;2.30;;;1.50;;
64235;SDS011;50564;47.402;9.740;2023-04-25T20:50:40;1.60;;;1.23;;
64235;SDS011;50564;47.402;9.740;2023-04-25T20:55:41;2.30;;;1.30;;
64235;SDS011;50564;47.402;9.740;2023-04-25T21:00:42;1.60;;;1.08;;
64235;SDS011;50564;47.402;9.740;2023-04-25T21:05:43;2.60;;;1.20;;
64235;SDS011;50564;47.402;9.740;2023-04-25T21:10:43;1.45;;;1.33;;
64235;SDS011;50564;47.402;9.740;2023-04-25T21:15:44;3.08;;;1.60;;
64235;SDS011;50564;47.402;9.740;2023-04-25T21:20:44;2.28;;;1.55;;
64235;SDS011;50564;47.402;9.740;2023-04-25T21:25:45;2.50;;;1.63;;
64235;SDS011;50564;47.402;9.740;2023-04-25T21:30:47;2.70;;;2.10;;
64235;SDS011;50564;47.402;9.740;2023-04-25T21:35:48;2.85;;;2.20;;
64235;SDS011;50564;47.402;9.740;2023-04-25T21:40:49;4.20;;;2.90;;
64235;SDS011;50564;47.402;9.740;2023-04-25T21:45:49;4.57;;;3.33;;
64235;SDS011;50564;47.402;9.740;2023-04-25T21:50:50;3.65;;;2.30;;
64235;SDS011;50564;47.402;9.740;2023-04-25T21:55:51;2.00;;;1.60;;
64235;SDS011;50564;47.402;9.740;2023-04-25T22:00:52;2.88;;;1.70;;
64235;SDS011;50564;47.402;9.740;2023-04-25T22:05:53;2.83;;;1.83;;
64235;SDS011;50564;47.402;9.740;2023-04-25T22:10:53;3.72;;;2.30;;
64235;SDS011;50564;47.402;9.740;2023-04-25T22:15:54;2.83;;;1.67;;
64235;SDS011;50564;47.402;9.740;2023-04-25T22:20:54;3.33;;;2.60;;
64235;SDS011;50564;47.402;9.740;2023-04-25T22:25:55;3.80;;;3.08;;
64235;SDS011;50564;47.402;9.740;2023-04-25T22:30:56;1.83;;;1.50;;
64235;SDS011;50564;47.402;9.740;2023-04-25T22:35:56;2.85;;;1.70;;
64235;SDS011;50564;47.402;9.740;2023-04-25T22:40:57;2.53;;;1.70;;
64235;SDS011;50564;47.402;9.740;2023-04-25T22:45:58;2.95;;;1.75;;
64235;SDS011;50564;47.402;9.740;2023-04-25T22:51:02;3.22;;;1.80;;
64235;SDS011;50564;47.402;9.740;2023-04-25T22:56:03;3.13;;;2.15;;
64235;SDS011;50564;47.402;9.740;2023-04-25T23:01:05;4.57;;;2.30;;
64235;SDS011;50564;47.402;9.740;2023-04-25T23:06:06;5.15;;;2.50;;
64235;SDS011;50564;47.402;9.740;2023-04-25T23:11:07;5.30;;;2.92;;
64235;SDS011;50564;47.402;9.740;2023-04-25T23:16:08;5.55;;;3.05;;
64235;SDS011;50564;47.402;9.740;2023-04-25T23:21:09;4.72;;;3.00;;
64235;SDS011;50564;47.402;9.740;2023-04-25T23:26:11;4.63;;;3.53;;
64235;SDS011;50564;47.402;9.740;2023-04-25T23:31:12;3.45;;;2.25;;
64235;SDS011;50564;47.402;9.740;2023-04-25T23:36:18;3.35;;;2.10;;
64235;SDS011;50564;47.402;9.740;2023-04-25T23:41:20;2.38;;;1.83;;
64235;SDS011;50564;47.402;9.740;2023-04-25T23:46:22;5.47;;;2.08;;
64235;SDS011;50564;47.402;9.740;2023-04-25T23:51:23;1.40;;;1.30;;
64235;SDS011;50564;47.402;9.740;2023-04-25T23:56:24;2.70;;;1.58;;
